createdAt,value
2023-05-14T05:30:40.277Z,5.05
2023-05-14T05:35:43.334Z,6.45
2023-05-14T05:40:45.602Z,5.80
2023-05-14T05:45:47.717Z,6.97
2023-05-14T05:50:50.406Z,5.72
2023-05-14T05:55:52.604Z,8.03
2023-05-14T06:00:55.288Z,6.23
2023-05-14T06:05:57.353Z,5.28
2023-05-14T06:10:59.462Z,6.53
2023-05-14T06:16:01.537Z,6.03
2023-05-14T06:21:03.866Z,5.78
2023-05-14T06:26:06.088Z,6.90
2023-05-14T06:31:08.222Z,6.27
2023-05-14T06:36:10.668Z,6.15
2023-05-14T06:41:12.752Z,8.57
2023-05-14T06:46:14.918Z,7.07
2023-05-14T06:51:17.011Z,6.10
2023-05-14T06:56:19.193Z,8.32
2023-05-14T07:01:22.739Z,7.30
2023-05-14T07:06:24.809Z,5.93
2023-05-14T07:11:26.860Z,6.70
2023-05-14T07:16:29.066Z,6.57
2023-05-14T07:21:31.850Z,6.57
2023-05-14T07:26:34.123Z,7.25
2023-05-14T07:31:36.379Z,7.60
2023-05-14T07:36:38.874Z,7.57
2023-05-14T07:41:40.980Z,6.50
2023-05-14T07:46:43.134Z,7.53
2023-05-14T07:51:45.268Z,10.53
2023-05-14T07:56:47.370Z,6.47
2023-05-14T08:01:49.483Z,7.12
2023-05-14T08:06:51.715Z,6.75
2023-05-14T08:11:54.316Z,7.37
2023-05-14T08:16:56.484Z,7.40
2023-05-14T08:21:58.691Z,7.18
2023-05-14T08:27:00.916Z,6.97
2023-05-14T08:32:11.668Z,8.00
2023-05-14T08:37:21.770Z,6.80
2023-05-14T08:42:25.786Z,7.10
2023-05-14T08:47:32.864Z,8.63
2023-05-14T08:52:35.611Z,7.05
2023-05-14T08:57:37.811Z,7.10
2023-05-14T09:02:41.763Z,8.83
2023-05-14T09:07:43.945Z,8.07
2023-05-14T09:12:46.408Z,8.48
2023-05-14T09:17:48.781Z,8.57
2023-05-14T09:22:54.737Z,9.02
2023-05-14T09:27:58.657Z,8.15
2023-05-14T09:33:01.586Z,7.43
2023-05-14T09:38:03.769Z,7.00
2023-05-14T09:43:05.893Z,8.70
2023-05-14T09:48:08.746Z,7.80
2023-05-14T09:53:11.696Z,9.30
2023-05-14T09:58:14.715Z,7.72
2023-05-14T10:03:19.958Z,8.32
2023-05-14T10:08:35.393Z,9.50
2023-05-14T10:13:41.902Z,9.15
2023-05-14T10:18:48.568Z,7.22
2023-05-14T10:23:51.980Z,10.03
2023-05-14T10:28:54.323Z,9.90
2023-05-14T10:33:58.029Z,9.50
2023-05-14T10:39:04.445Z,10.05
2023-05-14T10:44:09.953Z,8.47
2023-05-14T10:49:12.206Z,10.02
2023-05-14T10:54:16.534Z,8.32
2023-05-14T10:59:18.575Z,7.80
2023-05-14T11:04:23.814Z,9.07
2023-05-14T11:09:26.245Z,9.10
2023-05-14T11:14:28.659Z,10.67
2023-05-14T11:19:31.019Z,8.87
2023-05-14T11:24:33.089Z,9.30
2023-05-14T11:29:36.995Z,11.00
2023-05-14T11:34:39.529Z,8.70
2023-05-14T11:39:49.505Z,10.23
2023-05-14T11:44:53.849Z,12.65
2023-05-14T11:49:55.963Z,11.80
2023-05-14T11:54:58.470Z,10.82
2023-05-14T12:00:00.557Z,12.05
2023-05-14T12:05:02.741Z,10.37
2023-05-14T12:10:05.523Z,10.37
2023-05-14T12:15:13.461Z,8.98
2023-05-14T12:20:15.644Z,9.70
2023-05-14T12:25:17.897Z,10.10
2023-05-14T12:30:22.065Z,10.10
2023-05-14T12:35:26.829Z,10.98
2023-05-14T12:40:29.552Z,10.60
2023-05-14T12:45:31.786Z,10.90
2023-05-14T12:50:33.866Z,11.05
2023-05-14T12:55:35.953Z,11.03
2023-05-14T13:00:38.153Z,12.73
2023-05-14T13:05:40.331Z,12.75
2023-05-14T13:10:42.419Z,9.85
2023-05-14T13:15:46.757Z,9.97
2023-05-14T13:20:48.943Z,10.43
2023-05-14T13:25:51.114Z,10.77
2023-05-14T13:31:22.621Z,12.20
2023-05-14T13:36:24.779Z,12.02
2023-05-14T13:41:26.864Z,9.32
2023-05-14T13:46:29.076Z,10.83
2023-05-14T13:51:31.426Z,7.97
2023-05-14T13:56:33.538Z,8.82
2023-05-14T14:01:35.760Z,9.63
2023-05-14T14:06:37.867Z,9.07
2023-05-14T14:11:41.104Z,11.00
2023-05-14T14:16:43.463Z,10.07
2023-05-14T14:21:45.675Z,10.47
2023-05-14T14:26:47.749Z,10.10
2023-05-14T14:31:49.937Z,9.93
2023-05-14T14:36:52.228Z,10.60
2023-05-14T14:41:54.357Z,11.23
2023-05-14T14:46:56.416Z,9.73
2023-05-14T14:51:58.665Z,10.85
2023-05-14T14:57:00.829Z,13.70
2023-05-14T15:02:03.358Z,9.85
2023-05-14T15:07:06.293Z,6.97
2023-05-14T15:12:09.102Z,5.37
2023-05-14T15:17:11.594Z,6.03
2023-05-14T15:22:13.704Z,6.07
2023-05-14T15:27:15.806Z,5.27
2023-05-14T15:32:17.931Z,9.60
2023-05-14T15:37:20.044Z,8.35
2023-05-14T15:42:22.188Z,6.72
2023-05-14T15:47:24.257Z,6.43
2023-05-14T15:52:26.573Z,5.62
2023-05-14T15:57:28.775Z,7.32
2023-05-14T16:02:33.338Z,4.80
2023-05-14T16:07:36.336Z,6.57
2023-05-14T16:12:38.488Z,6.35
2023-05-14T16:17:41.063Z,7.27
2023-05-14T16:22:43.296Z,5.27
2023-05-14T16:27:45.540Z,4.80
2023-05-14T16:32:49.496Z,4.93
2023-05-14T16:37:51.750Z,5.83
2023-05-14T16:42:53.845Z,5.25
2023-05-14T16:47:55.986Z,5.22
2023-05-14T16:52:58.156Z,4.90
2023-05-14T16:58:00.253Z,4.25
2023-05-14T17:03:02.501Z,4.75
2023-05-14T17:08:05.434Z,5.80
2023-05-14T17:13:07.682Z,4.93
2023-05-14T17:18:12.064Z,3.90
2023-05-14T17:23:14.510Z,4.72
2023-05-14T17:28:16.645Z,4.03
2023-05-14T17:33:18.764Z,5.25
2023-05-14T17:38:20.851Z,5.00
2023-05-14T17:43:23.015Z,5.57
2023-05-14T17:48:25.167Z,4.62
2023-05-14T17:53:27.263Z,5.25
2023-05-14T17:58:29.415Z,6.67
2023-05-14T18:03:31.612Z,8.00
2023-05-14T18:08:33.760Z,5.35
2023-05-14T18:13:35.910Z,8.50
2023-05-14T18:18:38.104Z,6.90
2023-05-14T18:23:40.923Z,6.75
2023-05-14T18:28:43.139Z,5.40
2023-05-14T18:33:45.309Z,6.17
2023-05-14T18:38:47.477Z,6.97
2023-05-14T18:43:50.056Z,5.80
2023-05-14T18:48:52.183Z,6.13
2023-05-14T18:53:54.743Z,7.07
2023-05-14T18:58:56.890Z,5.75
2023-05-14T19:03:59.007Z,6.60
2023-05-14T19:09:01.496Z,9.30
2023-05-14T19:14:03.596Z,6.70
2023-05-14T19:19:05.756Z,9.10
2023-05-14T19:24:08.242Z,8.13
2023-05-14T19:29:10.424Z,10.15
2023-05-14T19:34:12.633Z,9.07
2023-05-14T19:39:14.702Z,8.27
2023-05-14T19:44:16.814Z,9.60
2023-05-14T19:49:19.007Z,7.43
2023-05-14T19:54:21.146Z,8.02
2023-05-14T19:59:23.773Z,7.10
2023-05-14T20:04:26.123Z,7.75
2023-05-14T20:09:28.221Z,8.77
2023-05-14T20:14:30.291Z,6.70
2023-05-14T20:19:32.504Z,7.35
2023-05-14T20:24:34.608Z,6.30
2023-05-14T20:29:36.711Z,8.17
2023-05-14T20:34:38.780Z,6.90
2023-05-14T20:39:40.934Z,6.07
2023-05-14T20:44:43.076Z,7.45
2023-05-14T20:49:45.104Z,6.47
2023-05-14T20:54:47.209Z,5.75
2023-05-14T20:59:49.387Z,6.60
2023-05-14T21:04:51.733Z,7.10
2023-05-14T21:09:53.917Z,6.62
2023-05-14T21:14:56.103Z,7.50
2023-05-14T21:19:58.177Z,8.07
2023-05-14T21:25:00.262Z,7.73
2023-05-14T21:30:02.497Z,8.82
2023-05-14T21:35:05.401Z,8.52
2023-05-14T21:40:09.418Z,6.90
2023-05-14T21:45:11.621Z,8.57
2023-05-14T21:50:13.877Z,8.13
2023-05-14T21:55:16.076Z,5.50
2023-05-14T22:00:23.395Z,7.12
2023-05-14T22:05:26.106Z,5.28
2023-05-14T22:10:28.431Z,4.53
2023-05-14T22:15:30.607Z,4.33
2023-05-14T22:20:32.688Z,6.20
2023-05-14T22:25:34.869Z,6.72
2023-05-14T22:30:36.974Z,6.10
2023-05-14T22:35:39.181Z,4.85
2023-05-14T22:40:41.308Z,4.75
2023-05-14T22:45:43.771Z,5.67
2023-05-14T22:50:45.912Z,5.50
2023-05-14T22:55:48.148Z,8.35
2023-05-14T23:00:50.323Z,5.50
2023-05-14T23:05:52.466Z,6.40
2023-05-14T23:10:54.523Z,6.93
2023-05-14T23:15:56.727Z,6.60
2023-05-14T23:20:58.928Z,6.90
2023-05-14T23:26:01.305Z,6.60
2023-05-14T23:31:03.487Z,6.90
2023-05-14T23:36:06.245Z,6.67
2023-05-14T23:41:08.339Z,7.03
2023-05-14T23:46:10.653Z,8.02
2023-05-14T23:51:12.805Z,8.73
2023-05-14T23:56:14.880Z,10.23
